Terminal Aerodrome Forecast
Issued by NWS

Current Version | Previous Version | Graphics & Text | Print | Product List | Glossary On
Versions: 1 2 3 4 5 6 7 8 9 10 11 12 13 14 15 16 17 18 19 20 21 22 23 24 25 26 27 28 29 30 31 32
273
FTUS41 KRNK 221720
TAFLWB
TAF
KLWB 221720Z 2218/2318 22004KT P6SM BKN200
     FM230000 VRB03KT P6SM VCSH OVC050
     FM230500 VRB03KT 3SM RA BKN025 OVC045
     FM230900 20004KT 6SM -RA OVC015 WS020/21035KT
     FM231300 23006KT P6SM VCSH BKN050
     FM231700 24011KT P6SM BKN030=

USA.gov is the U.S. government's official web portal to all federal, state and local government web resources and services.